createdAt,value
2023-05-11T00:03:54.286Z,190.70
2023-05-11T00:07:57.361Z,190.40
2023-05-11T00:12:00.412Z,190.20
2023-05-11T00:16:04.088Z,189.37
2023-05-11T00:20:09.910Z,190.63
2023-05-11T00:24:12.913Z,189.00
2023-05-11T00:28:16.030Z,189.43
2023-05-11T00:32:18.999Z,189.77
2023-05-11T00:36:23.404Z,189.13
2023-05-11T00:40:26.804Z,189.10
2023-05-11T00:44:29.775Z,189.73
2023-05-11T00:48:32.953Z,187.67
2023-05-11T00:52:38.472Z,187.75
2023-05-11T00:56:41.695Z,187.10
2023-05-11T01:00:44.798Z,187.00
2023-05-11T01:04:47.862Z,187.80
2023-05-11T01:08:57.962Z,186.00
2023-05-11T01:13:15.912Z,186.40
2023-05-11T01:17:32.550Z,186.80
2023-05-11T01:21:36.838Z,187.10
2023-05-11T01:26:15.294Z,186.90
2023-05-11T01:30:31.524Z,185.35
2023-05-11T01:34:36.989Z,185.27
2023-05-11T01:38:42.098Z,183.60
2023-05-11T01:42:49.622Z,185.37
2023-05-11T01:46:54.434Z,183.70
2023-05-11T01:51:01.475Z,185.50
2023-05-11T01:55:08.441Z,185.40
2023-05-11T01:59:12.965Z,185.43
2023-05-11T02:03:17.969Z,183.70
2023-05-11T02:07:23.453Z,185.55
2023-05-11T02:11:29.107Z,187.50
2023-05-11T02:15:33.900Z,187.00
2023-05-11T02:19:39.864Z,186.50
2023-05-11T02:23:44.364Z,185.55
2023-05-11T02:27:47.432Z,187.05
2023-05-11T02:31:53.979Z,187.05
2023-05-11T02:36:00.427Z,187.65
2023-05-11T02:40:07.517Z,187.25
2023-05-11T02:44:15.418Z,186.40
2023-05-11T02:48:23.935Z,185.45
2023-05-11T02:52:29.320Z,187.15
2023-05-11T02:56:32.738Z,184.90
2023-05-11T03:00:36.038Z,184.40
2023-05-11T03:04:39.966Z,183.60
2023-05-11T03:08:44.588Z,186.63
2023-05-11T03:12:48.146Z,186.33
2023-05-11T03:16:52.145Z,188.10
2023-05-11T03:20:55.493Z,187.45
2023-05-11T03:25:00.898Z,187.23
2023-05-11T03:29:04.384Z,186.60
2023-05-11T03:33:07.539Z,187.35
2023-05-11T03:37:13.619Z,190.00
2023-05-11T03:41:20.010Z,190.95
2023-05-11T03:45:24.093Z,191.23
2023-05-11T03:49:27.998Z,192.23
2023-05-11T03:53:31.916Z,192.32
2023-05-11T03:57:36.887Z,192.57
2023-05-11T04:01:39.941Z,192.40
2023-05-11T04:05:43.148Z,192.05
2023-05-11T04:09:46.207Z,190.10
2023-05-11T04:13:50.525Z,190.67
2023-05-11T04:17:53.693Z,193.30
2023-05-11T04:21:56.765Z,192.80
2023-05-11T04:25:59.747Z,191.93
2023-05-11T04:30:04.182Z,190.90
2023-05-11T04:34:08.644Z,192.60
2023-05-11T04:38:11.662Z,187.00
2023-05-11T04:42:14.678Z,187.35
2023-05-11T04:46:19.217Z,188.40
2023-05-11T04:50:22.293Z,189.77
2023-05-11T04:54:25.364Z,188.65
2023-05-11T04:58:28.366Z,190.20
2023-05-11T05:02:32.705Z,189.70
2023-05-11T05:06:35.846Z,188.40
2023-05-11T05:10:39.042Z,191.37
2023-05-11T05:14:42.137Z,192.40
2023-05-11T05:18:46.909Z,194.15
2023-05-11T05:22:50.153Z,190.95
2023-05-11T05:26:53.187Z,188.80
2023-05-11T05:30:56.248Z,187.40
2023-05-11T05:35:00.785Z,185.73
2023-05-11T05:39:08.822Z,186.10
2023-05-11T05:43:11.815Z,185.30
2023-05-11T05:47:14.831Z,185.90
2023-05-11T05:51:19.231Z,187.00
2023-05-11T05:55:22.847Z,186.30
2023-05-11T05:59:25.854Z,185.60
2023-05-11T06:03:29.775Z,185.10
2023-05-11T06:07:34.502Z,185.20
2023-05-11T06:11:38.244Z,184.80
2023-05-11T06:15:46.946Z,185.43
2023-05-11T06:19:50.753Z,184.00
2023-05-11T06:23:55.247Z,184.00
2023-05-11T06:27:58.240Z,184.20
2023-05-11T06:32:01.340Z,183.50
2023-05-11T06:36:08.083Z,182.40
2023-05-11T06:40:13.526Z,183.85
2023-05-11T06:44:16.494Z,182.43
2023-05-11T06:48:19.992Z,183.10
2023-05-11T06:52:23.090Z,183.13
2023-05-11T06:56:27.963Z,180.60
2023-05-11T07:00:31.068Z,183.50
2023-05-11T07:04:34.072Z,183.80
2023-05-11T07:08:37.109Z,180.87
2023-05-11T07:12:41.476Z,184.10
2023-05-11T07:16:44.604Z,183.50
2023-05-11T07:20:50.089Z,177.90
2023-05-11T07:24:53.340Z,178.95
2023-05-11T07:28:57.785Z,182.55
2023-05-11T07:33:00.859Z,182.60
2023-05-11T07:37:03.878Z,182.98
2023-05-11T07:41:08.886Z,183.37
2023-05-11T07:45:14.782Z,182.60
2023-05-11T07:49:23.002Z,180.90
2023-05-11T07:53:34.249Z,183.10
2023-05-11T07:57:37.453Z,181.93
2023-05-11T08:01:42.007Z,182.20
2023-05-11T08:05:45.072Z,182.45
2023-05-11T08:09:48.133Z,182.20
2023-05-11T08:13:51.716Z,181.50
2023-05-11T08:17:56.214Z,182.53
2023-05-11T08:21:59.284Z,181.80
2023-05-11T08:26:02.762Z,181.40
2023-05-11T08:30:06.665Z,181.30
2023-05-11T08:38:18.982Z,182.40
2023-05-11T08:42:25.073Z,182.00
2023-05-11T08:46:31.190Z,179.70
2023-05-11T08:50:36.047Z,182.27
2023-05-11T08:54:39.336Z,182.17
2023-05-11T08:58:43.480Z,181.80
2023-05-11T09:02:47.214Z,180.15
2023-05-11T09:06:52.354Z,182.70
2023-05-11T09:10:56.252Z,183.23
2023-05-11T09:15:02.440Z,183.73
2023-05-11T09:19:06.415Z,181.93
2023-05-11T09:23:11.063Z,178.20
2023-05-11T09:27:21.304Z,177.07
2023-05-11T09:31:37.933Z,177.50
2023-05-11T09:35:40.942Z,177.63
2023-05-11T09:40:14.008Z,171.50
2023-05-11T09:44:10.467Z,175.52
2023-05-11T09:48:26.937Z,169.30
2023-05-11T09:52:30.042Z,172.20
2023-05-11T09:56:48.327Z,179.50
2023-05-11T10:00:52.243Z,190.70
2023-05-11T10:04:57.694Z,189.90
2023-05-11T10:09:10.116Z,191.80
2023-05-11T10:13:14.762Z,195.93
2023-05-11T10:17:18.301Z,191.95
2023-05-11T10:21:21.589Z,196.30
2023-05-11T10:25:26.525Z,199.85
2023-05-11T10:29:31.986Z,198.33
2023-05-11T10:33:35.661Z,200.05
2023-05-11T10:37:38.902Z,198.60
2023-05-11T10:41:49.404Z,198.70
2023-05-11T10:46:05.143Z,199.90
2023-05-11T10:50:33.970Z,197.90
2023-05-11T10:54:46.873Z,200.70
2023-05-11T10:59:07.781Z,197.40
2023-05-11T11:03:13.829Z,199.60
2023-05-11T11:07:18.694Z,197.90
2023-05-11T11:11:33.237Z,199.40
2023-05-11T11:16:09.533Z,199.10
2023-05-11T11:20:47.416Z,199.80
2023-05-11T11:24:50.433Z,199.35
2023-05-11T11:29:12.432Z,199.95
2023-05-11T11:33:34.385Z,198.40
2023-05-11T11:38:02.314Z,198.57
2023-05-11T11:42:07.206Z,197.80
2023-05-11T11:46:10.249Z,198.57
2023-05-11T11:50:14.344Z,197.40
2023-05-11T11:54:38.524Z,198.47
2023-05-11T11:59:00.924Z,197.10
2023-05-11T12:03:05.275Z,198.50
2023-05-11T12:07:10.690Z,198.10
2023-05-11T12:11:18.857Z,196.30
2023-05-11T12:15:26.389Z,196.75
2023-05-11T12:19:29.427Z,197.60
2023-05-11T12:23:32.703Z,197.25
2023-05-11T12:27:37.096Z,198.20
2023-05-11T12:31:41.144Z,196.00
2023-05-11T12:35:45.580Z,195.80
2023-05-11T12:39:54.589Z,194.40
2023-05-11T12:43:59.200Z,194.03
2023-05-11T12:48:02.388Z,194.70
2023-05-11T12:52:09.004Z,195.05
2023-05-11T12:56:12.453Z,196.50
2023-05-11T13:00:19.979Z,195.73
2023-05-11T13:04:31.109Z,194.40
2023-05-11T13:08:34.250Z,195.00
2023-05-11T13:12:48.291Z,193.85
2023-05-11T13:16:55.818Z,194.50
2023-05-11T13:21:08.692Z,194.95
2023-05-11T13:25:11.684Z,197.80
2023-05-11T13:29:14.693Z,196.80
2023-05-11T13:33:19.513Z,198.70
2023-05-11T13:37:22.678Z,195.00
2023-05-11T13:41:26.102Z,197.25
2023-05-11T13:45:29.424Z,199.00
2023-05-11T13:49:34.648Z,197.70
2023-05-11T13:53:37.627Z,197.50
2023-05-11T13:57:40.802Z,191.90
2023-05-11T14:01:44.015Z,198.90
2023-05-11T14:05:50.044Z,197.10
2023-05-11T14:09:53.069Z,196.03
2023-05-11T14:13:56.129Z,195.18
2023-05-11T14:17:59.283Z,195.50
2023-05-11T14:22:03.886Z,197.15
2023-05-11T14:26:07.524Z,196.95
2023-05-11T14:30:11.506Z,196.85
2023-05-11T14:34:14.512Z,197.20
2023-05-11T14:38:19.070Z,195.20
2023-05-11T14:42:22.159Z,192.90
2023-05-11T14:46:26.584Z,194.87
2023-05-11T14:50:30.146Z,193.60
2023-05-11T14:54:36.011Z,194.00
2023-05-11T14:58:39.124Z,194.35
2023-05-11T15:02:42.400Z,194.90
2023-05-11T15:06:45.447Z,193.90
2023-05-11T15:10:49.972Z,194.40
2023-05-11T15:14:52.958Z,191.90
2023-05-11T15:18:56.152Z,192.90
2023-05-11T15:22:59.245Z,193.60
2023-05-11T15:27:03.735Z,191.27
2023-05-11T15:31:06.733Z,194.00
2023-05-11T15:35:10.603Z,194.27
2023-05-11T15:39:13.698Z,194.20
2023-05-11T15:43:18.057Z,190.80
2023-05-11T15:47:21.132Z,191.05
2023-05-11T15:51:24.396Z,193.85
2023-05-11T15:55:27.451Z,194.77
2023-05-11T15:59:32.553Z,194.60
2023-05-11T16:03:35.718Z,196.10
2023-05-11T16:07:39.425Z,191.05
2023-05-11T16:11:43.549Z,197.53
2023-05-11T16:15:47.955Z,195.90
2023-05-11T16:19:51.285Z,191.35
2023-05-11T16:23:54.409Z,194.10
2023-05-11T16:27:57.367Z,193.25
2023-05-11T16:32:01.907Z,194.18
2023-05-11T16:36:06.472Z,190.55
2023-05-11T16:40:10.559Z,190.65
2023-05-11T16:44:13.816Z,193.27
2023-05-11T16:48:18.164Z,192.85
2023-05-11T16:52:21.185Z,193.00
2023-05-11T16:56:24.182Z,189.90
2023-05-11T17:00:28.255Z,192.85
2023-05-11T17:04:32.594Z,191.87
2023-05-11T17:08:35.592Z,193.60
2023-05-11T17:12:38.601Z,191.00
2023-05-11T17:16:42.036Z,194.55
2023-05-11T17:20:46.724Z,194.05
2023-05-11T17:24:49.822Z,190.65
2023-05-11T17:28:52.866Z,193.53
2023-05-11T17:32:56.276Z,191.70
2023-05-11T17:37:00.925Z,192.20
2023-05-11T17:41:05.907Z,192.03
2023-05-11T17:45:10.250Z,178.70
2023-05-11T17:49:13.247Z,179.45
2023-05-11T17:53:17.652Z,177.87
2023-05-11T17:57:23.399Z,184.67
2023-05-11T18:01:27.568Z,191.15
2023-05-11T18:05:40.302Z,190.37
2023-05-11T18:09:53.385Z,190.15
2023-05-11T18:13:57.473Z,190.80
2023-05-11T18:18:00.481Z,189.20
2023-05-11T18:22:04.611Z,189.70
2023-05-11T18:26:08.955Z,189.83
2023-05-11T18:30:12.751Z,189.48
2023-05-11T18:34:15.781Z,181.45
2023-05-11T18:38:18.784Z,178.40
2023-05-11T18:42:23.126Z,176.90
2023-05-11T18:46:26.141Z,172.80
2023-05-11T18:50:30.028Z,173.10
2023-05-11T18:54:33.809Z,175.00
2023-05-11T18:58:38.408Z,174.55
2023-05-11T19:02:41.519Z,176.03
2023-05-11T19:06:44.625Z,175.07
2023-05-11T19:10:49.461Z,175.30
2023-05-11T19:14:56.231Z,174.60
2023-05-11T19:18:59.441Z,173.83
2023-05-11T19:23:04.353Z,170.20
2023-05-11T19:27:08.158Z,173.75
2023-05-11T19:31:13.745Z,172.17
2023-05-11T19:35:17.724Z,176.80
2023-05-11T19:39:20.712Z,175.75
2023-05-11T19:43:23.933Z,178.85
2023-05-11T19:47:28.566Z,182.65
2023-05-11T19:51:32.008Z,181.77
2023-05-11T19:55:35.214Z,180.82
2023-05-11T19:59:39.068Z,183.73
2023-05-11T20:03:50.856Z,183.10
2023-05-11T20:07:53.923Z,186.55
2023-05-11T20:11:56.898Z,186.55
2023-05-11T20:16:00.334Z,187.50
2023-05-11T20:20:05.217Z,189.90
2023-05-11T20:24:08.833Z,189.27
2023-05-11T20:28:12.327Z,188.67
2023-05-11T20:32:15.458Z,189.50
2023-05-11T20:36:21.001Z,188.90
2023-05-11T20:40:25.437Z,189.60
2023-05-11T20:44:28.516Z,189.50
2023-05-11T20:48:39.956Z,190.40
2023-05-11T20:52:44.728Z,188.85
2023-05-11T20:56:47.756Z,189.77
2023-05-11T21:00:50.775Z,190.20
2023-05-11T21:05:01.510Z,185.20
2023-05-11T21:09:06.524Z,185.50
2023-05-11T21:13:09.776Z,185.90
2023-05-11T21:17:12.801Z,184.32
2023-05-11T21:21:15.975Z,186.90
2023-05-11T21:25:20.415Z,185.53
2023-05-11T21:29:23.443Z,186.70
2023-05-11T21:33:26.489Z,186.55
2023-05-11T21:37:33.375Z,186.83
2023-05-11T21:41:37.736Z,186.30
2023-05-11T21:45:41.116Z,185.80
2023-05-11T21:49:44.144Z,186.05
2023-05-11T21:53:47.133Z,186.45
2023-05-11T21:57:51.555Z,186.73
2023-05-11T22:01:55.329Z,186.03
2023-05-11T22:05:58.357Z,184.70
2023-05-11T22:10:01.434Z,186.05
2023-05-11T22:14:06.468Z,185.80
2023-05-11T22:18:09.579Z,185.20
2023-05-11T22:22:12.652Z,185.60
2023-05-11T22:26:15.667Z,185.70
2023-05-11T22:30:20.534Z,185.10
2023-05-11T22:34:24.444Z,185.00
2023-05-11T22:38:27.705Z,185.50
2023-05-11T22:42:32.845Z,182.20
2023-05-11T22:46:37.307Z,184.10
2023-05-11T22:50:46.584Z,185.47
2023-05-11T22:54:54.588Z,184.93
2023-05-11T22:58:59.930Z,184.97
2023-05-11T23:03:05.348Z,185.47
2023-05-11T23:07:12.059Z,185.90
2023-05-11T23:11:16.145Z,185.20
2023-05-11T23:15:19.423Z,185.40
2023-05-11T23:19:25.190Z,185.27
2023-05-11T23:23:28.351Z,183.03
2023-05-11T23:27:31.418Z,184.50
2023-05-11T23:31:34.507Z,185.13
2023-05-11T23:35:39.149Z,186.00
2023-05-11T23:39:42.127Z,184.87
2023-05-11T23:43:45.129Z,184.10
2023-05-11T23:47:48.169Z,184.00
2023-05-11T23:51:52.679Z,183.83
2023-05-11T23:55:55.685Z,184.63
2023-05-11T23:59:58.859Z,185.10
